Terminal Aerodrome Forecast
Issued by NWS Twin Cities, MN

Home | Current Version | Previous Version | Graphics & Text | Print | Product List | Glossary On
Versions: 1 2 3 4 5 6 7 8 9 10 11 12 13 14 15 16 17 18 19 20
820
FTUS43 KMPX 251645 AAA
TAFSTC
TAF AMD
KSTC 251645Z 2517/2612 06007G15KT P6SM OVC014
     FM251800 07010KT P6SM BKN025
     FM260300 06006KT P6SM OVC015
     FM260800 05005KT 5SM -DZ BR OVC007=

USA.gov is the U.S. government's official web portal to all federal, state and local government web resources and services.